Time;durP1;ratioP1;P1;durP2;ratioP2;P2;SDS_P1;SDS_P2;PMS_P1;PMS_P2;Temp;Humidity;BMP_temperature;BMP_pressure;BME280_temperature;BME280_humidity;BME280_pressure;Samples;Min_cycle;Max_cycle;Signal;HPM_P1;HPM_P2
2019/08/01 00:02:04;;;;;;;1.61;1.51;;;;;;;23.79;54.97;100750.61;;;;-53
2019/08/01 00:05:04;;;;;;;2.61;1.47;;;;;;;23.79;54.98;100749.26;;;;-53
2019/08/01 00:08:04;;;;;;;1.89;1.50;;;;;;;23.79;54.95;100754.05;;;;-53
2019/08/01 00:11:04;;;;;;;1.86;1.61;;;;;;;23.79;54.98;100757.35;;;;-52
2019/08/01 00:14:04;;;;;;;2.35;1.68;;;;;;;23.78;54.96;100759.34;;;;-53
2019/08/01 00:17:04;;;;;;;1.83;1.40;;;;;;;23.78;55.00;100759.82;;;;-53
2019/08/01 00:20:04;;;;;;;1.68;1.50;;;;;;;23.78;55.00;100763.87;;;;-53
2019/08/01 00:23:04;;;;;;;1.57;1.47;;;;;;;23.77;55.02;100765.59;;;;-53
2019/08/01 00:26:04;;;;;;;1.56;1.46;;;;;;;23.78;55.01;100771.29;;;;-53
2019/08/01 00:29:04;;;;;;;2.02;1.73;;;;;;;23.77;55.04;100773.69;;;;-53
2019/08/01 00:32:04;;;;;;;1.72;1.50;;;;;;;23.77;55.03;100773.01;;;;-53
2019/08/01 00:35:04;;;;;;;2.13;1.37;;;;;;;23.77;55.07;100773.95;;;;-53
2019/08/01 00:38:04;;;;;;;1.79;1.52;;;;;;;23.77;55.04;100773.95;;;;-52
2019/08/01 00:41:04;;;;;;;1.65;1.49;;;;;;;23.76;55.04;100774.59;;;;-53
2019/08/01 00:44:04;;;;;;;1.80;1.51;;;;;;;23.76;55.07;100778.20;;;;-52
2019/08/01 00:47:04;;;;;;;1.61;1.51;;;;;;;23.76;55.05;100786.64;;;;-52
2019/08/01 00:50:04;;;;;;;1.67;1.50;;;;;;;23.76;55.08;100784.28;;;;-53
2019/08/01 00:53:04;;;;;;;1.62;1.34;;;;;;;23.75;55.08;100781.72;;;;-52
2019/08/01 00:56:04;;;;;;;1.67;1.49;;;;;;;23.75;55.08;100783.50;;;;-53
2019/08/01 00:59:04;;;;;;;2.05;1.49;;;;;;;23.75;55.10;100779.96;;;;-53
2019/08/01 01:02:04;;;;;;;1.97;1.58;;;;;;;23.74;55.07;100783.20;;;;-53
2019/08/01 01:05:04;;;;;;;1.49;1.39;;;;;;;23.74;55.09;100783.70;;;;-53
2019/08/01 01:08:04;;;;;;;1.79;1.55;;;;;;;23.73;55.08;100782.93;;;;-53
2019/08/01 01:11:04;;;;;;;1.53;1.41;;;;;;;23.73;55.10;100782.66;;;;-53
2019/08/01 01:14:04;;;;;;;2.11;1.50;;;;;;;23.73;55.10;100784.21;;;;-53
2019/08/01 01:17:04;;;;;;;1.58;1.48;;;;;;;23.73;55.12;100785.39;;;;-53
2019/08/01 01:20:04;;;;;;;1.71;1.41;;;;;;;23.73;55.13;100787.89;;;;-53
2019/08/01 01:23:04;;;;;;;1.45;1.34;;;;;;;23.72;55.12;100786.27;;;;-53
2019/08/01 01:26:04;;;;;;;1.41;1.31;;;;;;;23.72;55.11;100789.81;;;;-53
2019/08/01 01:29:04;;;;;;;2.09;1.50;;;;;;;23.72;55.12;100789.81;;;;-53
2019/08/01 01:32:04;;;;;;;1.98;1.53;;;;;;;23.72;55.13;100795.45;;;;-53
2019/08/01 01:35:04;;;;;;;2.09;1.50;;;;;;;23.71;55.15;100803.44;;;;-53
2019/08/01 01:38:04;;;;;;;1.67;1.39;;;;;;;23.71;55.16;100804.28;;;;-53
2019/08/01 01:41:04;;;;;;;1.65;1.55;;;;;;;23.71;55.17;100808.94;;;;-53
2019/08/01 01:44:04;;;;;;;1.51;1.41;;;;;;;23.70;55.17;100807.29;;;;-53
2019/08/01 01:47:04;;;;;;;1.59;1.47;;;;;;;23.71;55.17;100806.20;;;;-53
2019/08/01 01:50:04;;;;;;;2.41;1.42;;;;;;;23.70;55.19;100802.91;;;;-53
2019/08/01 01:53:04;;;;;;;1.60;1.50;;;;;;;23.70;55.16;100803.84;;;;-53
2019/08/01 01:56:04;;;;;;;1.57;1.37;;;;;;;23.70;55.14;100808.30;;;;-53
2019/08/01 01:59:04;;;;;;;1.57;1.47;;;;;;;23.69;55.18;100809.11;;;;-52
2019/08/01 02:02:04;;;;;;;1.61;1.51;;;;;;;23.70;55.17;100806.45;;;;-53
2019/08/01 02:05:04;;;;;;;1.61;1.51;;;;;;;23.69;55.17;100798.59;;;;-52
2019/08/01 02:08:04;;;;;;;1.50;1.40;;;;;;;23.69;55.13;100796.30;;;;-53
2019/08/01 02:11:04;;;;;;;1.50;1.40;;;;;;;23.69;55.19;100799.09;;;;-53
2019/08/01 02:14:04;;;;;;;1.60;1.50;;;;;;;23.69;55.20;100798.05;;;;-53
2019/08/01 02:17:04;;;;;;;1.64;1.54;;;;;;;23.68;55.20;100792.05;;;;-53
2019/08/01 02:20:04;;;;;;;1.45;1.35;;;;;;;23.68;55.17;100791.37;;;;-53
2019/08/01 02:23:04;;;;;;;1.71;1.61;;;;;;;23.68;55.20;100795.48;;;;-53
2019/08/01 02:26:04;;;;;;;1.60;1.50;;;;;;;23.67;55.22;100794.20;;;;-53
2019/08/01 02:29:04;;;;;;;1.74;1.51;;;;;;;23.67;55.23;100795.38;;;;-53
2019/08/01 02:32:04;;;;;;;1.51;1.41;;;;;;;23.67;55.22;100791.23;;;;-53
2019/08/01 02:35:04;;;;;;;1.67;1.55;;;;;;;23.68;55.22;100790.42;;;;-53
2019/08/01 02:38:04;;;;;;;1.69;1.59;;;;;;;23.67;55.22;100794.61;;;;-52
2019/08/01 02:41:04;;;;;;;1.61;1.49;;;;;;;23.67;55.22;100792.42;;;;-54
2019/08/01 02:44:04;;;;;;;1.57;1.41;;;;;;;23.67;55.22;100795.05;;;;-53
2019/08/01 02:47:04;;;;;;;1.72;1.49;;;;;;;23.66;55.23;100794.84;;;;-53
2019/08/01 02:50:04;;;;;;;1.49;1.39;;;;;;;23.66;55.22;100801.19;;;;-53
2019/08/01 02:53:04;;;;;;;1.50;1.40;;;;;;;23.65;55.26;100798.80;;;;-53
2019/08/01 02:56:04;;;;;;;1.83;1.55;;;;;;;23.65;55.25;100799.44;;;;-52
2019/08/01 02:59:04;;;;;;;1.50;1.40;;;;;;;23.65;55.26;100798.92;;;;-53
2019/08/01 03:02:04;;;;;;;1.71;1.59;;;;;;;23.65;55.25;100800.38;;;;-53
2019/08/01 03:05:04;;;;;;;1.57;1.47;;;;;;;23.65;55.24;100802.80;;;;-53
2019/08/01 03:08:04;;;;;;;1.63;1.51;;;;;;;23.65;55.26;100806.69;;;;-53
2019/08/01 03:11:04;;;;;;;2.02;1.41;;;;;;;23.64;55.26;100804.93;;;;-53
2019/08/01 03:14:04;;;;;;;1.41;1.31;;;;;;;23.64;55.29;100805.41;;;;-54
2019/08/01 03:17:04;;;;;;;1.59;1.49;;;;;;;23.64;55.24;100802.41;;;;-53
2019/08/01 03:20:04;;;;;;;1.73;1.40;;;;;;;23.64;55.30;100798.89;;;;-53
2019/08/01 03:23:04;;;;;;;1.62;1.52;;;;;;;23.63;55.31;100800.58;;;;-53
2019/08/01 03:26:04;;;;;;;1.58;1.48;;;;;;;23.63;55.31;100798.73;;;;-53
2019/08/01 03:29:04;;;;;;;1.60;1.50;;;;;;;23.63;55.29;100798.16;;;;-53
2019/08/01 03:32:04;;;;;;;1.48;1.38;;;;;;;23.63;55.27;100799.64;;;;-53
2019/08/01 03:35:04;;;;;;;1.55;1.43;;;;;;;23.62;55.28;100798.77;;;;-53
2019/08/01 03:38:04;;;;;;;1.47;1.37;;;;;;;23.62;55.28;100799.20;;;;-53
2019/08/01 03:41:04;;;;;;;1.50;1.40;;;;;;;23.62;55.30;100797.48;;;;-53
2019/08/01 03:44:04;;;;;;;1.86;1.52;;;;;;;23.62;55.32;100799.80;;;;-53
2019/08/01 03:47:04;;;;;;;1.59;1.49;;;;;;;23.62;55.28;100799.84;;;;-54
2019/08/01 03:50:04;;;;;;;1.60;1.50;;;;;;;23.62;55.31;100795.97;;;;-53
2019/08/01 03:53:04;;;;;;;1.59;1.47;;;;;;;23.61;55.31;100800.78;;;;-53
2019/08/01 03:56:04;;;;;;;1.50;1.40;;;;;;;23.61;55.35;100800.14;;;;-53
2019/08/01 03:59:04;;;;;;;1.59;1.47;;;;;;;23.61;55.30;100802.27;;;;-53
2019/08/01 04:02:04;;;;;;;1.57;1.40;;;;;;;23.61;55.36;100800.92;;;;-53
2019/08/01 04:05:04;;;;;;;1.47;1.37;;;;;;;23.61;55.34;100801.83;;;;-52
2019/08/01 04:08:04;;;;;;;1.50;1.40;;;;;;;23.60;55.34;100798.12;;;;-53
2019/08/01 04:11:04;;;;;;;1.46;1.33;;;;;;;23.60;55.35;100798.59;;;;-53
2019/08/01 04:14:04;;;;;;;1.46;1.36;;;;;;;23.60;55.35;100800.89;;;;-52
2019/08/01 04:17:04;;;;;;;1.71;1.61;;;;;;;23.59;55.36;100802.41;;;;-53
2019/08/01 04:20:04;;;;;;;1.63;1.53;;;;;;;23.60;55.34;100805.17;;;;-53
2019/08/01 04:23:04;;;;;;;1.46;1.36;;;;;;;23.59;55.33;100808.10;;;;-53
2019/08/01 04:26:04;;;;;;;2.04;1.40;;;;;;;23.59;55.34;100808.78;;;;-53
2019/08/01 04:29:04;;;;;;;1.63;1.53;;;;;;;23.59;55.34;100806.25;;;;-53
2019/08/01 04:32:04;;;;;;;1.50;1.40;;;;;;;23.59;55.37;100808.34;;;;-53
2019/08/01 04:35:04;;;;;;;1.53;1.42;;;;;;;23.59;55.38;100810.70;;;;-53
2019/08/01 04:38:04;;;;;;;1.50;1.40;;;;;;;23.58;55.42;100812.29;;;;-52
2019/08/01 04:41:04;;;;;;;7.50;2.78;;;;;;;22.95;47.71;100811.31;;;;-53
2019/08/01 04:44:04;;;;;;;5.88;3.00;;;;;;;22.55;48.56;100809.14;;;;-53
2019/08/01 04:47:03;;;;;;;5.43;2.81;;;;;;;22.32;48.15;100813.37;;;;-53
2019/08/01 04:50:04;;;;;;;6.78;2.83;;;;;;;22.13;48.58;100813.52;;;;-53
2019/08/01 04:53:04;;;;;;;5.60;2.85;;;;;;;21.88;48.60;100812.52;;;;-53
2019/08/01 04:56:04;;;;;;;6.53;2.92;;;;;;;21.80;48.90;100815.05;;;;-53
2019/08/01 04:59:04;;;;;;;5.70;3.03;;;;;;;21.70;49.11;100820.63;;;;-53
2019/08/01 05:02:04;;;;;;;7.47;3.07;;;;;;;21.61;49.19;100819.45;;;;-53
2019/08/01 05:05:04;;;;;;;9.13;3.11;;;;;;;21.53;49.32;100824.59;;;;-53
2019/08/01 05:08:04;;;;;;;5.64;2.83;;;;;;;21.47;49.49;100821.92;;;;-53
2019/08/01 05:11:04;;;;;;;6.77;3.15;;;;;;;21.44;49.62;100827.74;;;;-53
2019/08/01 05:14:04;;;;;;;5.94;3.05;;;;;;;21.38;49.43;100826.92;;;;-53
2019/08/01 05:17:04;;;;;;;4.43;2.73;;;;;;;21.34;49.66;100829.98;;;;-53
2019/08/01 05:20:04;;;;;;;6.17;2.93;;;;;;;21.31;49.63;100829.02;;;;-53
2019/08/01 05:23:04;;;;;;;6.75;2.87;;;;;;;21.28;49.41;100841.65;;;;-52
2019/08/01 05:26:04;;;;;;;5.77;2.77;;;;;;;21.26;49.47;100840.22;;;;-53
2019/08/01 05:29:04;;;;;;;8.46;3.05;;;;;;;21.25;49.34;100838.55;;;;-53
2019/08/01 05:32:04;;;;;;;6.24;2.95;;;;;;;21.21;49.53;100833.78;;;;-53
2019/08/01 05:35:04;;;;;;;5.93;3.14;;;;;;;21.19;49.58;100830.57;;;;-53
2019/08/01 05:38:04;;;;;;;5.18;2.73;;;;;;;21.16;49.80;100831.28;;;;-53
2019/08/01 05:41:04;;;;;;;6.98;2.75;;;;;;;21.10;49.67;100831.29;;;;-53
2019/08/01 05:44:04;;;;;;;6.39;2.89;;;;;;;21.12;49.79;100831.95;;;;-53
2019/08/01 05:47:04;;;;;;;4.92;2.79;;;;;;;21.05;49.67;100833.48;;;;-53
2019/08/01 05:50:04;;;;;;;4.99;2.60;;;;;;;21.07;49.72;100835.02;;;;-52
2019/08/01 05:53:04;;;;;;;5.80;2.86;;;;;;;21.09;49.82;100836.48;;;;-52
2019/08/01 05:56:04;;;;;;;7.27;2.92;;;;;;;21.07;49.60;100836.13;;;;-63
2019/08/01 05:59:04;;;;;;;7.36;2.80;;;;;;;21.08;49.89;100831.23;;;;-62
2019/08/01 06:02:04;;;;;;;5.29;2.93;;;;;;;21.17;49.83;100834.72;;;;-61
2019/08/01 06:05:04;;;;;;;7.46;3.15;;;;;;;21.21;50.12;100828.98;;;;-62
2019/08/01 06:08:04;;;;;;;6.46;2.95;;;;;;;21.20;49.98;100828.53;;;;-62
2019/08/01 06:11:04;;;;;;;7.29;2.97;;;;;;;21.17;49.97;100823.47;;;;-62
2019/08/01 06:14:04;;;;;;;6.57;2.87;;;;;;;21.19;50.07;100816.13;;;;-62
2019/08/01 06:17:04;;;;;;;8.35;3.15;;;;;;;21.19;50.21;100816.63;;;;-62
2019/08/01 06:20:04;;;;;;;5.11;2.91;;;;;;;21.23;50.13;100813.05;;;;-62
2019/08/01 06:23:04;;;;;;;6.25;3.15;;;;;;;21.23;50.13;100812.10;;;;-62
2019/08/01 06:26:04;;;;;;;5.71;2.95;;;;;;;21.22;50.37;100809.13;;;;-62
2019/08/01 06:29:04;;;;;;;5.17;3.00;;;;;;;21.24;50.57;100811.73;;;;-62
2019/08/01 06:32:04;;;;;;;6.47;2.97;;;;;;;21.24;50.44;100813.82;;;;-52
2019/08/01 06:35:04;;;;;;;7.95;3.26;;;;;;;21.31;50.48;100813.11;;;;-53
2019/08/01 06:38:04;;;;;;;4.51;2.91;;;;;;;21.35;50.39;100813.02;;;;-52
2019/08/01 06:41:04;;;;;;;7.16;3.05;;;;;;;21.33;50.22;100812.19;;;;-52
2019/08/01 06:44:04;;;;;;;6.27;2.94;;;;;;;21.31;50.11;100814.89;;;;-53
2019/08/01 06:47:04;;;;;;;7.41;2.91;;;;;;;21.32;50.23;100812.25;;;;-52
2019/08/01 06:50:04;;;;;;;6.51;2.87;;;;;;;21.36;50.38;100815.91;;;;-52
2019/08/01 06:53:04;;;;;;;6.20;3.15;;;;;;;21.37;50.16;100813.94;;;;-53
2019/08/01 06:56:04;;;;;;;7.21;3.18;;;;;;;21.39;50.33;100815.09;;;;-53
2019/08/01 06:59:04;;;;;;;6.19;2.76;;;;;;;21.47;50.54;100811.57;;;;-52
2019/08/01 07:02:04;;;;;;;5.37;2.89;;;;;;;21.42;50.47;100814.42;;;;-53
2019/08/01 07:05:04;;;;;;;6.55;3.19;;;;;;;21.47;50.48;100817.16;;;;-52
2019/08/01 07:08:04;;;;;;;6.13;2.95;;;;;;;21.46;50.67;100817.28;;;;-53
2019/08/01 07:11:04;;;;;;;6.75;3.10;;;;;;;21.51;50.69;100813.46;;;;-53
2019/08/01 07:14:04;;;;;;;5.68;3.05;;;;;;;21.50;50.29;100814.16;;;;-53
2019/08/01 07:17:04;;;;;;;15.45;3.29;;;;;;;21.53;50.33;100813.17;;;;-51
2019/08/01 07:20:04;;;;;;;7.85;2.90;;;;;;;21.55;50.03;100814.53;;;;-52
2019/08/01 07:23:04;;;;;;;7.23;3.25;;;;;;;21.61;50.24;100814.58;;;;-52
2019/08/01 07:26:04;;;;;;;7.03;2.96;;;;;;;21.62;49.92;100815.70;;;;-53
2019/08/01 07:29:04;;;;;;;8.13;3.03;;;;;;;21.65;49.74;100813.97;;;;-52
2019/08/01 07:32:04;;;;;;;9.05;3.05;;;;;;;21.73;49.49;100815.05;;;;-53
2019/08/01 07:35:04;;;;;;;11.04;3.01;;;;;;;21.82;49.97;100807.57;;;;-52
2019/08/01 07:38:04;;;;;;;10.28;2.80;;;;;;;21.86;50.15;100800.91;;;;-51
2019/08/01 07:41:04;;;;;;;7.09;2.71;;;;;;;21.91;50.07;100798.98;;;;-51
2019/08/01 07:44:04;;;;;;;5.49;2.79;;;;;;;21.95;50.21;100801.64;;;;-51
2019/08/01 07:47:04;;;;;;;5.40;2.49;;;;;;;22.00;50.36;100805.84;;;;-51
2019/08/01 07:50:04;;;;;;;7.73;2.87;;;;;;;22.03;50.47;100803.37;;;;-51
2019/08/01 07:53:04;;;;;;;7.22;2.89;;;;;;;22.06;50.50;100799.34;;;;-51
2019/08/01 07:56:04;;;;;;;4.57;2.66;;;;;;;22.09;50.54;100798.28;;;;-51
2019/08/01 07:59:04;;;;;;;4.86;2.70;;;;;;;22.10;50.63;100795.13;;;;-51
2019/08/01 08:02:04;;;;;;;7.69;2.33;;;;;;;22.12;50.68;100792.63;;;;-51
2019/08/01 08:05:03;;;;;;;4.13;2.51;;;;;;;22.14;50.79;100790.17;;;;-51
2019/08/01 08:08:04;;;;;;;4.87;2.45;;;;;;;22.16;50.83;100788.27;;;;-51
2019/08/01 08:11:04;;;;;;;6.37;2.58;;;;;;;22.18;50.84;100786.83;;;;-51
2019/08/01 08:14:04;;;;;;;5.05;2.51;;;;;;;22.20;50.91;100781.86;;;;-51
2019/08/01 08:17:04;;;;;;;4.35;2.36;;;;;;;22.21;50.94;100782.71;;;;-51
2019/08/01 08:20:04;;;;;;;4.25;2.31;;;;;;;22.24;50.92;100778.92;;;;-51
2019/08/01 08:23:03;;;;;;;4.28;2.24;;;;;;;22.25;50.97;100776.70;;;;-52
2019/08/01 08:26:04;;;;;;;3.45;2.21;;;;;;;22.26;51.02;100774.05;;;;-51
2019/08/01 08:29:04;;;;;;;4.24;2.35;;;;;;;22.28;51.00;100774.36;;;;-51
2019/08/01 08:32:04;;;;;;;3.24;2.27;;;;;;;22.29;51.03;100775.75;;;;-51
2019/08/01 08:35:04;;;;;;;3.51;2.43;;;;;;;22.31;51.04;100774.71;;;;-51
2019/08/01 08:38:04;;;;;;;4.77;2.39;;;;;;;22.33;51.11;100773.94;;;;-51
2019/08/01 08:41:04;;;;;;;3.51;2.40;;;;;;;22.34;51.14;100764.89;;;;-51
2019/08/01 08:44:04;;;;;;;3.31;2.39;;;;;;;22.35;51.17;100764.46;;;;-51
2019/08/01 08:47:03;;;;;;;3.85;2.36;;;;;;;22.36;51.25;100763.09;;;;-51
2019/08/01 08:50:04;;;;;;;2.38;1.93;;;;;;;22.37;51.25;100759.66;;;;-51
2019/08/01 08:53:04;;;;;;;3.20;2.23;;;;;;;22.38;51.37;100755.59;;;;-51
2019/08/01 08:56:04;;;;;;;3.73;2.25;;;;;;;22.39;51.34;100760.00;;;;-51
2019/08/01 08:59:04;;;;;;;2.77;2.21;;;;;;;22.40;51.39;100755.50;;;;-52
2019/08/01 09:02:22;;;;;;;3.85;2.25;;;;;;;22.41;51.37;100753.75;;;;-51
2019/08/01 09:05:05;;;;;;;2.69;2.09;;;;;;;22.42;51.42;100751.42;;;;-51
2019/08/01 09:08:04;;;;;;;3.87;2.43;;;;;;;22.43;51.46;100748.84;;;;-51
2019/08/01 09:11:04;;;;;;;2.48;2.04;;;;;;;22.44;51.52;100746.52;;;;-51
2019/08/01 09:14:04;;;;;;;3.31;2.11;;;;;;;22.44;51.54;100743.02;;;;-51
2019/08/01 09:17:04;;;;;;;3.77;2.50;;;;;;;22.46;51.59;100745.35;;;;-51
2019/08/01 09:20:04;;;;;;;3.02;2.23;;;;;;;22.46;51.59;100741.55;;;;-51
2019/08/01 09:23:04;;;;;;;3.37;2.27;;;;;;;22.47;51.67;100735.86;;;;-51
2019/08/01 09:26:03;;;;;;;4.03;2.32;;;;;;;22.48;51.69;100739.59;;;;-51
2019/08/01 09:29:04;;;;;;;2.89;2.19;;;;;;;22.49;51.76;100740.38;;;;-51
2019/08/01 09:32:04;;;;;;;2.53;2.21;;;;;;;22.50;51.75;100736.55;;;;-51
2019/08/01 09:35:04;;;;;;;3.37;2.25;;;;;;;22.50;51.79;100734.22;;;;-51
2019/08/01 09:38:04;;;;;;;3.14;2.11;;;;;;;22.51;51.81;100733.81;;;;-52
2019/08/01 09:41:04;;;;;;;3.13;2.11;;;;;;;22.51;51.85;100734.42;;;;-51
2019/08/01 09:44:04;;;;;;;3.79;2.09;;;;;;;22.52;51.86;100731.53;;;;-52
2019/08/01 09:47:04;;;;;;;2.38;1.82;;;;;;;22.53;51.87;100730.80;;;;-51
2019/08/01 09:50:04;;;;;;;4.49;2.05;;;;;;;22.54;51.89;100731.41;;;;-51
2019/08/01 09:53:04;;;;;;;2.87;1.92;;;;;;;22.54;51.93;100731.73;;;;-51
2019/08/01 09:56:04;;;;;;;2.80;2.04;;;;;;;22.55;51.97;100731.51;;;;-51
2019/08/01 09:59:04;;;;;;;2.60;1.92;;;;;;;22.56;51.95;100731.38;;;;-52
2019/08/01 10:02:04;;;;;;;3.73;2.22;;;;;;;22.56;52.00;100724.06;;;;-51
2019/08/01 10:05:04;;;;;;;3.20;2.06;;;;;;;22.56;52.01;100722.05;;;;-51
2019/08/01 10:08:04;;;;;;;2.99;2.01;;;;;;;22.57;52.02;100721.68;;;;-51
2019/08/01 10:11:04;;;;;;;2.62;2.02;;;;;;;22.58;52.07;100719.16;;;;-51
2019/08/01 10:14:04;;;;;;;2.79;2.04;;;;;;;22.58;52.13;100715.45;;;;-51
2019/08/01 10:17:04;;;;;;;2.40;2.03;;;;;;;22.59;52.12;100704.81;;;;-51
2019/08/01 10:20:04;;;;;;;2.79;1.93;;;;;;;22.60;52.11;100707.45;;;;-51
2019/08/01 10:23:04;;;;;;;2.99;1.97;;;;;;;22.59;52.12;100703.80;;;;-51
2019/08/01 10:26:04;;;;;;;3.01;1.90;;;;;;;22.59;52.18;100699.33;;;;-52
2019/08/01 10:29:04;;;;;;;2.87;1.95;;;;;;;22.62;52.19;100700.31;;;;-51
2019/08/01 10:32:04;;;;;;;2.13;1.90;;;;;;;22.61;52.21;100694.95;;;;-51
2019/08/01 10:35:04;;;;;;;2.42;1.98;;;;;;;22.63;52.19;100701.83;;;;-51
2019/08/01 10:38:04;;;;;;;2.75;2.00;;;;;;;22.64;52.23;100701.46;;;;-51
2019/08/01 10:41:04;;;;;;;2.04;1.82;;;;;;;22.65;52.21;100701.83;;;;-51
2019/08/01 10:44:03;;;;;;;2.59;1.98;;;;;;;22.65;52.22;100703.52;;;;-51
2019/08/01 10:47:03;;;;;;;3.71;1.93;;;;;;;22.66;52.25;100704.13;;;;-51
2019/08/01 10:50:04;;;;;;;2.29;1.82;;;;;;;22.66;52.24;100705.47;;;;-51
2019/08/01 10:53:04;;;;;;;2.50;1.82;;;;;;;22.66;52.34;100707.93;;;;-51
2019/08/01 10:56:04;;;;;;;2.15;1.86;;;;;;;22.67;52.32;100702.08;;;;-51
2019/08/01 10:59:04;;;;;;;2.18;1.95;;;;;;;22.67;52.36;100696.58;;;;-51
2019/08/01 11:02:03;;;;;;;2.88;1.90;;;;;;;22.68;52.34;100691.84;;;;-51
2019/08/01 11:05:03;;;;;;;2.36;1.99;;;;;;;22.68;52.38;100689.65;;;;-51
2019/08/01 11:08:04;;;;;;;1.97;1.71;;;;;;;22.68;52.35;100683.42;;;;-51
2019/08/01 11:11:04;;;;;;;2.07;1.91;;;;;;;22.69;52.39;100687.33;;;;-52
2019/08/01 11:14:04;;;;;;;3.13;1.94;;;;;;;22.69;52.36;100682.45;;;;-51
2019/08/01 11:17:04;;;;;;;2.23;1.93;;;;;;;22.69;52.39;100678.13;;;;-51
2019/08/01 11:20:04;;;;;;;1.99;1.80;;;;;;;22.70;52.42;100676.31;;;;-51
2019/08/01 11:23:03;;;;;;;2.99;1.87;;;;;;;22.70;52.45;100678.10;;;;-51
2019/08/01 11:26:04;;;;;;;2.32;1.87;;;;;;;22.70;52.43;100664.13;;;;-51
2019/08/01 11:29:04;;;;;;;2.10;1.90;;;;;;;22.71;52.46;100662.48;;;;-50
2019/08/01 11:32:04;;;;;;;2.21;1.81;;;;;;;22.71;52.44;100666.18;;;;-51
2019/08/01 11:35:04;;;;;;;2.21;1.85;;;;;;;22.72;52.43;100657.42;;;;-51
2019/08/01 11:38:04;;;;;;;1.84;1.70;;;;;;;22.72;52.51;100656.38;;;;-51
2019/08/01 11:41:03;;;;;;;1.83;1.73;;;;;;;22.72;52.49;100654.09;;;;-51
2019/08/01 11:44:03;;;;;;;2.23;1.69;;;;;;;22.72;52.52;100655.38;;;;-51
2019/08/01 11:47:04;;;;;;;1.83;1.70;;;;;;;22.73;52.49;100655.07;;;;-51
2019/08/01 11:50:04;;;;;;;2.11;1.83;;;;;;;22.74;52.51;100658.03;;;;-51
2019/08/01 11:53:04;;;;;;;2.23;1.81;;;;;;;22.73;52.51;100654.56;;;;-51
2019/08/01 11:56:04;;;;;;;1.92;1.66;;;;;;;22.75;52.55;100648.77;;;;-51
2019/08/01 11:59:03;;;;;;;2.01;1.87;;;;;;;22.75;52.54;100642.48;;;;-51
2019/08/01 12:02:04;;;;;;;2.39;1.85;;;;;;;22.75;52.52;100647.90;;;;-51
2019/08/01 12:05:04;;;;;;;2.15;1.71;;;;;;;22.76;52.59;100646.78;;;;-51
2019/08/01 12:08:04;;;;;;;1.95;1.81;;;;;;;22.76;52.54;100640.32;;;;-51
2019/08/01 12:11:04;;;;;;;2.05;1.80;;;;;;;22.76;52.57;100633.86;;;;-52
2019/08/01 12:14:04;;;;;;;1.84;1.73;;;;;;;22.76;52.60;100629.98;;;;-51
2019/08/01 12:17:07;;;;;;;2.19;1.83;;;;;;;22.77;52.61;100625.27;;;;-52
2019/08/01 12:20:03;;;;;;;1.83;1.70;;;;;;;22.77;52.61;100625.13;;;;-51
2019/08/01 12:23:03;;;;;;;1.84;1.69;;;;;;;22.77;52.62;100622.71;;;;-52
2019/08/01 12:26:03;;;;;;;1.87;1.68;;;;;;;22.78;52.61;100625.91;;;;-52
2019/08/01 12:29:04;;;;;;;2.99;1.88;;;;;;;22.79;52.59;100622.81;;;;-51
2019/08/01 12:32:07;;;;;;;2.67;1.80;;;;;;;22.78;52.61;100622.54;;;;-51
2019/08/01 12:35:04;;;;;;;1.87;1.69;;;;;;;22.79;52.57;100620.55;;;;-51
2019/08/01 12:38:04;;;;;;;2.00;1.80;;;;;;;22.79;52.64;100620.05;;;;-52
2019/08/01 12:41:03;;;;;;;1.93;1.73;;;;;;;22.80;52.64;100615.94;;;;-52
2019/08/01 12:44:03;;;;;;;1.99;1.77;;;;;;;22.79;52.66;100616.34;;;;-52
2019/08/01 12:47:04;;;;;;;2.02;1.73;;;;;;;22.80;52.67;100619.23;;;;-51
2019/08/01 12:50:04;;;;;;;1.81;1.65;;;;;;;22.81;52.68;100615.56;;;;-49
2019/08/01 12:53:04;;;;;;;3.53;1.78;;;;;;;22.82;52.88;100616.71;;;;-49
2019/08/01 12:56:04;;;;;;;2.55;1.69;;;;;;;22.83;52.96;100610.85;;;;-49
2019/08/01 12:59:03;;;;;;;2.95;1.80;;;;;;;22.85;52.89;100605.36;;;;-53
2019/08/01 13:02:04;;;;;;;5.43;1.72;;;;;;;22.87;52.85;100603.54;;;;-51
2019/08/01 13:05:09;;;;;;;2.61;1.77;;;;;;;22.87;52.91;100606.67;;;;-50
2019/08/01 13:08:04;;;;;;;8.42;2.01;;;;;;;22.90;53.20;100603.64;;;;-60
2019/08/01 13:11:04;;;;;;;4.22;1.69;;;;;;;22.92;53.18;100606.23;;;;-56
2019/08/01 13:14:04;;;;;;;7.95;1.91;;;;;;;22.95;53.33;100599.49;;;;-51
2019/08/01 13:17:03;;;;;;;4.79;1.89;;;;;;;22.97;53.33;100596.29;;;;-50
2019/08/01 13:20:03;;;;;;;4.78;2.01;;;;;;;22.98;53.40;100597.27;;;;-51
2019/08/01 13:23:03;;;;;;;7.46;1.94;;;;;;;23.00;53.34;100597.23;;;;-52
2019/08/01 13:26:03;;;;;;;3.15;1.79;;;;;;;23.01;53.40;100592.38;;;;-52
2019/08/01 13:29:04;;;;;;;4.57;1.75;;;;;;;23.02;53.42;100586.61;;;;-52
2019/08/01 13:32:04;;;;;;;6.27;1.87;;;;;;;23.04;53.32;100587.66;;;;-48
2019/08/01 13:35:04;;;;;;;4.46;1.77;;;;;;;23.05;53.36;100581.83;;;;-57
2019/08/01 13:38:03;;;;;;;5.77;1.88;;;;;;;23.06;53.32;100576.80;;;;-57
2019/08/01 13:41:03;;;;;;;5.13;1.83;;;;;;;23.07;53.26;100583.54;;;;-58
2019/08/01 13:44:03;;;;;;;6.10;1.93;;;;;;;23.07;53.47;100578.22;;;;-55
2019/08/01 13:47:04;;;;;;;5.93;1.80;;;;;;;23.08;53.48;100572.82;;;;-53
2019/08/01 13:50:05;;;;;;;4.73;1.97;;;;;;;23.10;53.46;100569.95;;;;-54
2019/08/01 13:53:05;;;;;;;5.76;1.88;;;;;;;23.11;53.53;100567.19;;;;-52
2019/08/01 13:56:04;;;;;;;7.93;1.83;;;;;;;23.12;53.56;100561.33;;;;-53
2019/08/01 13:59:03;;;;;;;4.55;1.79;;;;;;;23.14;53.53;100555.32;;;;-59
2019/08/01 14:02:03;;;;;;;5.57;1.79;;;;;;;23.14;53.49;100550.94;;;;-61
2019/08/01 14:05:04;;;;;;;2.19;1.88;;;;;;;23.16;53.49;100551.51;;;;-61
2019/08/01 14:08:04;;;;;;;4.32;1.80;;;;;;;23.17;53.52;100550.86;;;;-61
2019/08/01 14:11:04;;;;;;;3.23;1.71;;;;;;;23.18;53.62;100541.86;;;;-58
2019/08/01 14:14:04;;;;;;;4.99;1.91;;;;;;;23.20;53.64;100541.93;;;;-59
2019/08/01 14:17:03;;;;;;;4.27;1.91;;;;;;;23.21;53.65;100545.26;;;;-62
2019/08/01 14:20:03;;;;;;;3.55;1.90;;;;;;;23.21;53.58;100531.44;;;;-61
2019/08/01 14:23:04;;;;;;;5.91;2.01;;;;;;;23.22;53.67;100535.52;;;;-61
2019/08/01 14:26:04;;;;;;;4.78;1.88;;;;;;;23.23;53.82;100538.31;;;;-59
2019/08/01 14:29:04;;;;;;;4.26;1.79;;;;;;;23.23;53.77;100535.37;;;;-57
2019/08/01 14:32:04;;;;;;;3.89;1.79;;;;;;;23.24;53.59;100535.65;;;;-58
2019/08/01 14:35:04;;;;;;;4.43;1.95;;;;;;;23.24;53.67;100536.66;;;;-58
2019/08/01 14:38:03;;;;;;;2.89;1.76;;;;;;;23.26;53.58;100537.83;;;;-62
2019/08/01 14:41:03;;;;;;;2.87;1.69;;;;;;;23.26;53.77;100537.33;;;;-59
2019/08/01 14:44:03;;;;;;;5.94;1.75;;;;;;;23.27;53.85;100538.77;;;;-57
2019/08/01 14:47:03;;;;;;;4.99;1.70;;;;;;;23.29;53.90;100538.09;;;;-51
2019/08/01 14:50:03;;;;;;;4.53;1.87;;;;;;;23.30;53.74;100538.05;;;;-51
2019/08/01 14:53:04;;;;;;;2.01;1.61;;;;;;;23.31;53.76;100534.10;;;;-49
2019/08/01 14:56:04;;;;;;;2.05;1.64;;;;;;;23.32;53.91;100528.03;;;;-51
2019/08/01 14:59:04;;;;;;;4.46;1.82;;;;;;;23.34;53.89;100529.88;;;;-59
2019/08/01 15:02:03;;;;;;;2.87;1.71;;;;;;;23.32;53.85;100527.56;;;;-58
2019/08/01 15:05:04;;;;;;;4.15;1.96;;;;;;;23.34;53.86;100530.22;;;;-50
2019/08/01 15:08:04;;;;;;;3.79;1.71;;;;;;;23.34;53.78;100528.53;;;;-50
2019/08/01 15:11:04;;;;;;;4.85;1.87;;;;;;;23.35;53.78;100529.74;;;;-49
2019/08/01 15:14:04;;;;;;;6.66;1.96;;;;;;;23.34;53.88;100525.59;;;;-61
2019/08/01 15:17:03;;;;;;;5.85;1.87;;;;;;;23.36;53.89;100527.14;;;;-59
2019/08/01 15:20:03;;;;;;;6.33;1.85;;;;;;;23.37;53.79;100524.30;;;;-60
2019/08/01 15:23:03;;;;;;;3.86;1.72;;;;;;;23.38;53.87;100517.02;;;;-60
2019/08/01 15:26:03;;;;;;;8.45;1.85;;;;;;;23.39;53.79;100515.03;;;;-59
2019/08/01 15:29:04;;;;;;;4.43;1.73;;;;;;;23.40;53.77;100517.25;;;;-59
2019/08/01 15:32:04;;;;;;;4.60;1.82;;;;;;;23.40;53.87;100509.93;;;;-59
2019/08/01 15:35:04;;;;;;;3.62;1.85;;;;;;;23.40;53.80;100504.53;;;;-61
2019/08/01 15:38:03;;;;;;;3.34;1.72;;;;;;;23.41;53.89;100500.52;;;;-54
2019/08/01 15:41:04;;;;;;;6.41;2.13;;;;;;;23.42;53.83;100494.95;;;;-55
2019/08/01 15:44:03;;;;;;;6.21;1.90;;;;;;;23.43;53.68;100491.95;;;;-55
2019/08/01 15:47:04;;;;;;;3.33;1.73;;;;;;;23.43;53.80;100489.35;;;;-53
2019/08/01 15:50:04;;;;;;;5.49;2.02;;;;;;;23.43;53.80;100492.89;;;;-58
2019/08/01 15:53:04;;;;;;;4.20;1.79;;;;;;;23.45;53.87;100493.36;;;;-56
2019/08/01 15:56:03;;;;;;;3.05;1.80;;;;;;;23.45;53.87;100492.52;;;;-57
2019/08/01 15:59:03;;;;;;;3.85;1.86;;;;;;;23.46;53.90;100486.98;;;;-54
2019/08/01 16:02:03;;;;;;;3.21;1.86;;;;;;;23.47;53.90;100480.94;;;;-54
2019/08/01 16:05:03;;;;;;;8.34;1.99;;;;;;;23.47;53.97;100486.34;;;;-49
2019/08/01 16:08:03;;;;;;;5.37;1.87;;;;;;;23.48;54.00;100485.69;;;;-50
2019/08/01 16:11:04;;;;;;;5.41;1.80;;;;;;;23.48;53.99;100484.34;;;;-51
2019/08/01 16:14:03;;;;;;;5.62;2.03;;;;;;;23.48;53.90;100484.17;;;;-52
2019/08/01 16:17:04;;;;;;;3.11;1.73;;;;;;;23.49;53.98;100481.61;;;;-58
2019/08/01 16:20:03;;;;;;;6.24;2.01;;;;;;;23.50;54.03;100481.53;;;;-57
2019/08/01 16:23:03;;;;;;;4.85;2.06;;;;;;;23.50;54.05;100476.64;;;;-58
2019/08/01 16:26:04;;;;;;;4.56;1.84;;;;;;;23.51;54.08;100477.45;;;;-53
2019/08/01 16:29:04;;;;;;;4.95;1.92;;;;;;;23.52;53.97;100471.14;;;;-60
2019/08/01 16:32:04;;;;;;;5.19;1.79;;;;;;;23.53;54.12;100474.37;;;;-52
2019/08/01 16:35:03;;;;;;;7.49;2.03;;;;;;;23.52;54.07;100470.02;;;;-51
2019/08/01 16:38:03;;;;;;;7.70;2.24;;;;;;;23.53;53.87;100462.47;;;;-59
2019/08/01 16:41:03;;;;;;;5.36;1.98;;;;;;;23.53;53.58;100460.87;;;;-54
2019/08/01 16:44:03;;;;;;;9.77;2.15;;;;;;;23.54;53.86;100458.45;;;;-51